Terminal Aerodrome Forecast
Issued by NWS Melbourne, FL

Current Version | Previous Version | Text Only | Print | Product List | Glossary On
Versions: 1 2 3 4 5 6 7 8 9 10 11 12 13 14 15 16 17 18 19 20 21
238
FTUS42 KMLB 200805 AAA
TAFDAB
TAF AMD
KDAB 200805Z 2008/2106 22004KT 2SM BR SCT004 BKN200
      TEMPO 2008/2012 1/4SM FG BKN002
     FM201400 21008KT P6SM FEW040 SCT100 BKN250
     FM210000 22004KT P6SM BKN200=

USA.gov is the U.S. government's official web portal to all federal, state and local government web resources and services.